Airfield :
LOGIN :

Register | Disclaimer

   EN    FR    IT 

 










Legend :    VFR   Marginal VFR   IFR   Intensive IFR   Very Intensive IFR
Visi :
Ceiling :
>= 8 km
>= 3000ft
5 to 8 km
1000 to 3000 ft
1500m to 5 km
500 to 1000 ft
800 to 1500m
200 to 500 ft
< 800m
< 200 ft
Symbols :   Thunderstorms  Fog  Heavy snow  Heavy precipitations  Wind > 20 kt
SIGMETs :     Misc.  Thunderstorms  Icing  Turbulence  Mountain Waves  Volcanic Ashes







- Airport Elevation : 1115 ft
- IATA code : GRZ


LOWG - Graz

CURRENT METAR :
  • 222150Z AUTO 25003KT 9999 NCD 23/17 Q1014 NOSIG

EXPIRED METARs :
  • 222120Z AUTO 25002KT 9999 NCD 24/17 Q1013 NOSIG
  • 222050Z AUTO VRB02KT 9999 NCD 24/17 Q1013 NOSIG
  • 222020Z AUTO VRB01KT 9999 FEW250 24/17 Q1014 NOSIG
  • 221950Z AUTO 32003KT 9999 FEW210 26/17 Q1014 NOSIG
  • 221920Z AUTO 02005KT 9999 SCT240 26/17 Q1013 NOSIG

TAF TAF LOWG
Valid from the 22 at 18:00 until the 23 at 18:00 UTC


221715Z 2218/2318 VRB02KT CAVOK TX33/2315Z TN18/2302Z
TEMPO 2218/2220 9999 FEW080CB SCT090
BECMG 2308/2310 19007KT 9999 FEW070
TEMPO 2310/2317 23010KT FEW080CB SCT120 BKN300
PROB30
TEMPO 2312/2315 30012KT TSRA SCT080CB BKN120
No reported NOTAMs for that airfield.
1 SIGMET reported for the Wien FIR (LOVV) :
 
Squall lined thunderstorms
LOVV SIGMET 2 VALID 222100/222300 LOWW
LOVV WIEN FIR SQL TS OBS WI N4640 E01225 - N4715 E01415 - N4700 E01455 - N4630 E01330 - N4640 E01225 TOP FL410 NC FCST AT 2300Z WI N4700 E01450 - N4640 E01520 - N4620 E01440 - N4630 E01325 - N4700 E01450=



MET'MAP, your aeronautical weather chart ! - Copyright ORBIFLY December 2007 - Disclaimer

ORBIFLY MET'MAP TEAM :

Programming & Development : Alexandra Zaïnal
Concept & Development : Baudouin d'Aumeries
Co-Development & Prog : Marc-Olivier Méhu
Technical & hardware support : Manuel Goepfert

Contact : metmap@orbifly.com




SOURCES & CREDITS :

   NOAA